createdAt,value
2022-08-05T00:01:27.981Z,84.50
2022-08-05T00:03:57.189Z,84.50
2022-08-05T00:06:32.178Z,84.50
2022-08-05T00:09:00.523Z,84.40
2022-08-05T00:11:34.682Z,84.60
2022-08-05T00:14:12.870Z,85.40
2022-08-05T00:16:53.717Z,84.90
2022-08-05T00:19:21.597Z,85.10
2022-08-05T00:21:49.317Z,85.70
2022-08-05T00:24:19.149Z,86.60
2022-08-05T00:26:51.775Z,86.50
2022-08-05T00:29:19.395Z,86.00
2022-08-05T00:31:54.332Z,86.00
2022-08-05T00:34:56.562Z,86.40
2022-08-05T00:37:25.058Z,85.90
2022-08-05T00:39:57.815Z,86.00
2022-08-05T00:42:32.712Z,86.30
2022-08-05T00:45:00.169Z,86.40
2022-08-05T00:47:31.753Z,86.70
2022-08-05T00:50:15.713Z,86.90
2022-08-05T00:52:45.496Z,87.20
2022-08-05T00:55:13.735Z,87.70
2022-08-05T00:57:57.933Z,87.80
2022-08-05T01:00:26.743Z,87.80
2022-08-05T01:02:55.276Z,87.50
2022-08-05T01:05:23.217Z,87.60
2022-08-05T01:08:40.068Z,87.00
2022-08-05T01:10:41.424Z,86.90
2022-08-05T01:13:27.164Z,84.70
2022-08-05T01:16:00.022Z,83.10
2022-08-05T01:18:34.031Z,81.40
2022-08-05T01:21:12.051Z,80.90
2022-08-05T01:23:57.849Z,80.30
2022-08-05T01:26:35.468Z,80.30
2022-08-05T01:29:05.703Z,80.20
2022-08-05T01:31:44.793Z,80.20
2022-08-05T01:34:16.593Z,80.50
2022-08-05T01:36:49.156Z,81.00
2022-08-05T01:39:46.224Z,81.20
2022-08-05T01:42:06.626Z,82.10
2022-08-05T01:44:39.335Z,82.70
2022-08-05T01:47:09.628Z,83.50
2022-08-05T01:50:00.372Z,84.00
2022-08-05T01:52:27.894Z,84.80
2022-08-05T01:54:58.598Z,85.50
2022-08-05T01:58:29.403Z,85.90
2022-08-05T02:00:19.359Z,86.20
2022-08-05T02:02:54.421Z,86.50
2022-08-05T02:05:25.538Z,86.90
2022-08-05T02:08:00.352Z,87.10
2022-08-05T02:10:34.755Z,87.40
2022-08-05T02:13:15.820Z,87.40
2022-08-05T02:15:49.676Z,87.60
2022-08-05T02:18:31.515Z,87.80
2022-08-05T02:21:05.787Z,87.90
2022-08-05T02:23:44.844Z,88.30
2022-08-05T02:26:17.076Z,88.40
2022-08-05T02:28:46.341Z,88.70
2022-08-05T02:31:21.810Z,88.80
2022-08-05T02:33:57.251Z,89.20
2022-08-05T02:36:27.281Z,89.20
2022-08-05T02:38:57.530Z,89.40
2022-08-05T02:41:28.720Z,89.60
2022-08-05T02:44:13.379Z,89.70
2022-08-05T02:46:58.902Z,89.70
2022-08-05T02:49:36.998Z,89.80
2022-08-05T02:52:07.940Z,90.00
2022-08-05T02:54:41.046Z,90.00
2022-08-05T02:58:10.221Z,90.10
2022-08-05T02:59:59.353Z,90.30
2022-08-05T03:02:31.554Z,90.30
2022-08-05T03:04:59.722Z,90.40
2022-08-05T03:08:01.111Z,90.40
2022-08-05T03:10:22.127Z,90.50
2022-08-05T03:12:54.037Z,90.60
2022-08-05T03:15:23.391Z,90.60
2022-08-05T03:17:54.150Z,90.70
2022-08-05T03:20:23.686Z,90.70
2022-08-05T03:22:52.179Z,90.70
2022-08-05T03:26:03.498Z,90.80
2022-08-05T03:28:08.758Z,91.00
2022-08-05T03:30:36.707Z,91.10
2022-08-05T03:33:07.330Z,91.20
2022-08-05T03:35:40.823Z,91.30
2022-08-05T03:38:10.800Z,91.40
2022-08-05T03:40:40.604Z,91.50
2022-08-05T03:43:59.273Z,91.50
2022-08-05T03:45:57.694Z,91.70
2022-08-05T03:48:27.542Z,91.80
2022-08-05T03:52:34.777Z,91.90
2022-08-05T03:55:49.827Z,91.90
2022-08-05T03:56:44.392Z,92.00
2022-08-05T03:59:20.436Z,92.10
2022-08-05T04:01:50.841Z,92.20
2022-08-05T04:04:21.581Z,92.30
2022-08-05T04:06:51.277Z,92.50
2022-08-05T04:09:20.216Z,92.50
2022-08-05T04:11:53.020Z,92.60
2022-08-05T04:14:30.280Z,92.70
2022-08-05T04:16:59.661Z,92.90
2022-08-05T04:19:28.581Z,93.10
2022-08-05T04:22:08.601Z,93.00
2022-08-05T04:24:44.006Z,93.10
2022-08-05T04:27:12.316Z,93.10
2022-08-05T04:29:39.432Z,93.00
2022-08-05T04:32:07.804Z,93.10
2022-08-05T04:34:42.660Z,93.00
2022-08-05T04:37:10.255Z,93.10
2022-08-05T04:39:37.851Z,93.20
2022-08-05T04:42:06.867Z,93.10
2022-08-05T04:44:33.728Z,93.50
2022-08-05T04:47:08.968Z,93.20
2022-08-05T04:50:06.510Z,93.30
2022-08-05T04:52:27.367Z,93.40
2022-08-05T04:54:57.391Z,93.50
2022-08-05T04:57:29.164Z,93.60
2022-08-05T04:59:58.513Z,93.60
2022-08-05T05:02:37.630Z,93.80
2022-08-05T05:05:26.220Z,94.00
2022-08-05T05:08:01.582Z,94.30
2022-08-05T05:10:29.733Z,94.60
2022-08-05T05:12:56.859Z,95.00
2022-08-05T05:16:01.902Z,95.30
2022-08-05T05:18:14.521Z,95.50
2022-08-05T05:20:46.068Z,95.70
2022-08-05T05:23:19.988Z,95.50
2022-08-05T05:25:47.880Z,95.60
2022-08-05T05:28:14.878Z,95.60
2022-08-05T05:30:42.704Z,95.60
2022-08-05T05:33:17.557Z,95.60
2022-08-05T05:35:51.880Z,95.60
2022-08-05T05:38:22.584Z,95.60
2022-08-05T05:40:54.746Z,95.60
2022-08-05T05:43:56.465Z,95.70
2022-08-05T05:46:16.084Z,95.60
2022-08-05T05:48:46.009Z,95.70
2022-08-05T05:51:20.513Z,95.80
2022-08-05T05:53:57.205Z,95.80
2022-08-05T05:56:26.002Z,95.90
2022-08-05T05:59:03.301Z,95.80
2022-08-05T06:01:38.061Z,95.90
2022-08-05T06:04:06.974Z,95.60
2022-08-05T06:06:35.784Z,95.50
2022-08-05T06:09:03.997Z,95.40
2022-08-05T06:11:31.557Z,95.10
2022-08-05T06:14:00.362Z,94.90
2022-08-05T06:16:32.704Z,95.00
2022-08-05T06:19:05.478Z,94.70
2022-08-05T06:21:38.406Z,94.90
2022-08-05T06:24:11.981Z,94.60
2022-08-05T06:26:40.094Z,94.30
2022-08-05T06:29:25.329Z,94.20
2022-08-05T06:32:06.350Z,94.10
2022-08-05T06:34:53.491Z,94.00
2022-08-05T06:37:39.423Z,94.00
2022-08-05T06:40:14.037Z,93.90
2022-08-05T06:42:45.763Z,93.80
2022-08-05T06:45:21.075Z,93.90
2022-08-05T06:48:36.959Z,93.40
2022-08-05T06:50:47.285Z,93.20
2022-08-05T06:53:22.516Z,92.60
2022-08-05T06:55:55.107Z,92.10
2022-08-05T06:58:30.116Z,92.10
2022-08-05T07:01:05.870Z,92.20
2022-08-05T07:03:33.529Z,92.10
2022-08-05T07:06:05.649Z,91.70
2022-08-05T07:08:43.045Z,91.40
2022-08-05T07:11:15.020Z,91.60
2022-08-05T07:14:01.706Z,91.50
2022-08-05T07:17:56.964Z,91.20
2022-08-05T07:22:28.699Z,90.00
2022-08-05T07:24:59.343Z,89.80
2022-08-05T07:27:27.319Z,89.60
2022-08-05T07:30:22.082Z,88.40
2022-08-05T07:32:53.447Z,89.30
2022-08-05T07:36:02.710Z,88.10
2022-08-05T07:38:07.453Z,87.40
2022-08-05T07:40:44.495Z,86.30
2022-08-05T07:43:14.787Z,85.80
2022-08-05T07:45:57.285Z,86.30
2022-08-05T07:49:04.155Z,85.60
2022-08-05T07:51:23.644Z,85.10
2022-08-05T07:53:59.459Z,84.00
2022-08-05T07:57:02.612Z,84.70
2022-08-05T07:59:17.191Z,84.00
2022-08-05T08:01:52.084Z,83.50
2022-08-05T08:04:37.619Z,83.70
2022-08-05T08:07:07.077Z,83.00
2022-08-05T08:09:34.823Z,81.60
2022-08-05T08:12:10.646Z,82.00
2022-08-05T08:14:38.353Z,81.30
2022-08-05T08:17:16.007Z,80.70
2022-08-05T08:20:23.031Z,80.40
2022-08-05T08:22:32.313Z,80.20
2022-08-05T08:25:03.219Z,81.70
2022-08-05T08:27:40.291Z,80.90
2022-08-05T08:30:29.953Z,79.90
2022-08-05T08:33:02.603Z,79.30
2022-08-05T08:35:41.358Z,78.00
2022-08-05T08:38:11.722Z,76.90
2022-08-05T08:40:50.431Z,76.80
2022-08-05T08:45:16.431Z,77.30
2022-08-05T08:46:10.050Z,76.70
2022-08-05T08:49:04.175Z,77.90
2022-08-05T08:52:03.574Z,77.20
2022-08-05T08:54:27.247Z,76.50
2022-08-05T08:56:56.520Z,76.10
2022-08-05T08:59:27.584Z,75.60
2022-08-05T09:02:01.074Z,75.40
2022-08-05T09:04:30.548Z,74.80
2022-08-05T09:06:58.503Z,73.80
2022-08-05T09:09:32.456Z,74.10
2022-08-05T09:12:19.792Z,73.80
2022-08-05T09:14:57.115Z,72.70
2022-08-05T09:17:40.758Z,71.40
2022-08-05T09:20:10.042Z,70.80
2022-08-05T09:23:18.451Z,70.50
2022-08-05T09:26:00.154Z,72.00
2022-08-05T09:28:32.329Z,69.80
2022-08-05T09:31:22.890Z,70.20
2022-08-05T09:33:53.753Z,70.20
2022-08-05T09:36:20.975Z,70.20
2022-08-05T09:38:58.530Z,70.90
2022-08-05T09:41:25.883Z,69.70
2022-08-05T09:43:52.791Z,68.40
2022-08-05T09:46:28.699Z,70.10
2022-08-05T09:49:08.178Z,68.80
2022-08-05T09:51:43.876Z,68.10
2022-08-05T09:54:15.959Z,65.20
2022-08-05T09:56:52.334Z,65.50
2022-08-05T09:59:24.312Z,63.00
2022-08-05T10:01:58.203Z,61.90
2022-08-05T10:04:35.795Z,59.90
2022-08-05T10:07:19.608Z,58.80
2022-08-05T10:10:04.299Z,59.20
2022-08-05T10:12:49.725Z,60.70
2022-08-05T10:15:26.049Z,59.40
2022-08-05T10:18:09.533Z,57.60
2022-08-05T10:20:39.855Z,58.00
2022-08-05T10:23:08.955Z,56.70
2022-08-05T10:25:55.815Z,55.50
2022-08-05T10:28:29.109Z,54.60
2022-08-05T10:33:01.286Z,53.30
2022-08-05T10:33:52.265Z,53.30
2022-08-05T10:36:23.645Z,53.10
2022-08-05T10:38:59.090Z,52.90
2022-08-05T10:41:45.185Z,53.40
2022-08-05T10:44:18.194Z,53.00
2022-08-05T10:46:46.691Z,52.40
2022-08-05T10:49:27.178Z,52.90
2022-08-05T10:52:03.347Z,51.80
2022-08-05T10:54:56.379Z,51.90
2022-08-05T10:57:30.834Z,52.00
2022-08-05T11:00:18.217Z,53.10
2022-08-05T11:03:25.703Z,52.60
2022-08-05T11:06:08.544Z,51.40
2022-08-05T11:09:13.052Z,52.30
2022-08-05T11:11:52.267Z,51.20
2022-08-05T11:14:49.337Z,51.80
2022-08-05T11:17:57.640Z,52.50
2022-08-05T11:20:43.833Z,51.80
2022-08-05T11:24:04.359Z,52.00
2022-08-05T11:26:28.953Z,51.90
2022-08-05T11:29:06.675Z,52.10
2022-08-05T11:31:56.446Z,52.70
2022-08-05T11:34:37.524Z,52.40
2022-08-05T11:37:06.206Z,52.70
2022-08-05T11:40:00.224Z,52.80
2022-08-05T11:42:32.943Z,53.70
2022-08-05T11:45:14.259Z,53.70
2022-08-05T11:47:54.671Z,52.10
2022-08-05T11:50:22.227Z,52.90
2022-08-05T11:52:52.082Z,52.20
2022-08-05T11:55:22.948Z,51.20
2022-08-05T11:58:09.298Z,50.80
2022-08-05T12:00:41.326Z,51.00
2022-08-05T12:03:29.349Z,51.70
2022-08-05T12:06:06.093Z,52.10
2022-08-05T12:08:39.490Z,51.30
2022-08-05T12:11:21.040Z,51.30
2022-08-05T12:13:55.366Z,51.30
2022-08-05T12:16:28.120Z,51.00
2022-08-05T12:18:56.038Z,51.70
2022-08-05T12:21:26.773Z,50.30
2022-08-05T12:24:04.531Z,50.50
2022-08-05T12:26:35.514Z,50.90
2022-08-05T12:29:03.775Z,50.40
2022-08-05T12:31:46.135Z,49.80
2022-08-05T12:34:21.141Z,49.90
2022-08-05T12:36:50.074Z,50.20
2022-08-05T12:39:17.718Z,51.10
2022-08-05T12:41:46.548Z,49.90
2022-08-05T12:44:32.786Z,50.60
2022-08-05T12:47:02.246Z,50.30
2022-08-05T12:50:04.719Z,51.10
2022-08-05T12:52:33.908Z,49.60
2022-08-05T12:55:18.049Z,49.90
2022-08-05T12:58:38.971Z,50.40
2022-08-05T13:02:01.885Z,50.10
2022-08-05T13:03:32.235Z,50.90
2022-08-05T13:06:00.057Z,51.70
2022-08-05T13:08:29.542Z,51.60
2022-08-05T13:11:00.129Z,51.30
2022-08-05T13:14:04.963Z,51.00
2022-08-05T13:16:17.285Z,51.20
2022-08-05T13:18:51.596Z,51.10
2022-08-05T13:21:18.436Z,51.00
2022-08-05T13:23:50.777Z,49.70
2022-08-05T13:26:21.803Z,50.20
2022-08-05T13:28:59.344Z,49.90
2022-08-05T13:32:03.064Z,51.10
2022-08-05T13:34:22.810Z,51.70
2022-08-05T13:36:52.677Z,50.70
2022-08-05T13:40:13.140Z,50.90
2022-08-05T13:42:07.478Z,50.10
2022-08-05T13:44:45.379Z,50.20
2022-08-05T13:47:36.078Z,50.40
2022-08-05T13:49:59.565Z,51.10
2022-08-05T13:52:29.056Z,50.60
2022-08-05T13:54:57.087Z,50.90
2022-08-05T13:57:26.588Z,51.40
2022-08-05T14:00:15.093Z,51.20
2022-08-05T14:02:44.427Z,50.70
2022-08-05T14:05:15.458Z,50.50
2022-08-05T14:07:59.721Z,51.60
2022-08-05T14:10:32.941Z,51.90
2022-08-05T14:12:59.952Z,52.50
2022-08-05T14:16:07.848Z,53.70
2022-08-05T14:18:18.080Z,54.40
2022-08-05T14:20:47.094Z,54.60
2022-08-05T14:23:14.981Z,54.90
2022-08-05T14:25:53.993Z,55.30
2022-08-05T14:28:26.755Z,55.40
2022-08-05T14:30:55.801Z,55.80
2022-08-05T14:33:24.189Z,55.90
2022-08-05T14:35:53.984Z,56.20
2022-08-05T14:38:32.625Z,56.70
2022-08-05T14:41:06.114Z,56.90
2022-08-05T14:44:02.361Z,57.00
2022-08-05T14:46:23.470Z,57.20
2022-08-05T14:48:57.259Z,57.40
2022-08-05T14:51:24.381Z,57.30
2022-08-05T14:54:26.903Z,57.50
2022-08-05T14:56:44.359Z,58.70
2022-08-05T14:59:14.621Z,58.40
2022-08-05T15:01:48.143Z,58.80
2022-08-05T15:04:16.435Z,58.90
2022-08-05T15:06:49.378Z,59.50
2022-08-05T15:09:17.185Z,60.00
2022-08-05T15:12:05.336Z,61.40
2022-08-05T15:14:34.804Z,61.40
2022-08-05T15:17:44.971Z,63.30
2022-08-05T15:19:58.331Z,67.00
2022-08-05T15:22:27.136Z,68.00
2022-08-05T15:24:54.856Z,68.60
2022-08-05T15:27:21.882Z,70.30
2022-08-05T15:29:52.760Z,71.50
2022-08-05T15:32:27.516Z,72.70
2022-08-05T15:34:56.150Z,75.20
2022-08-05T15:38:33.439Z,74.90
2022-08-05T15:40:58.547Z,74.20
2022-08-05T15:43:12.854Z,73.90
2022-08-05T15:45:46.214Z,73.10
2022-08-05T15:48:15.282Z,71.80
2022-08-05T15:50:43.904Z,71.80
2022-08-05T15:53:12.964Z,72.30
2022-08-05T15:56:01.964Z,72.80
2022-08-05T15:58:28.503Z,72.30
2022-08-05T16:01:11.594Z,73.40
2022-08-05T16:03:44.353Z,72.60
2022-08-05T16:06:15.489Z,73.70
2022-08-05T16:08:47.623Z,72.70
2022-08-05T16:11:14.481Z,73.10
2022-08-05T16:13:41.878Z,74.00
2022-08-05T16:16:10.802Z,74.00
2022-08-05T16:18:52.805Z,73.50
2022-08-05T16:21:59.967Z,73.90
2022-08-05T16:24:20.592Z,73.50
2022-08-05T16:26:57.798Z,74.20
2022-08-05T16:29:26.543Z,74.30
2022-08-05T16:31:56.174Z,75.10
2022-08-05T16:34:26.486Z,74.60
2022-08-05T16:36:55.377Z,73.80
2022-08-05T16:39:22.859Z,73.80
2022-08-05T16:42:15.414Z,73.90
2022-08-05T16:44:44.681Z,74.10
2022-08-05T16:47:28.695Z,74.50
2022-08-05T16:50:03.617Z,75.10
2022-08-05T16:52:33.520Z,75.30
2022-08-05T16:55:01.105Z,75.30
2022-08-05T16:57:53.302Z,75.30
2022-08-05T17:00:26.164Z,75.50
2022-08-05T17:03:02.355Z,75.10
2022-08-05T17:05:31.139Z,74.90
2022-08-05T17:07:59.507Z,75.20
2022-08-05T17:10:30.565Z,75.30
2022-08-05T17:12:58.128Z,75.50
2022-08-05T17:15:47.979Z,75.40
2022-08-05T17:18:14.286Z,75.70
2022-08-05T17:20:42.461Z,75.30
2022-08-05T17:24:03.270Z,75.00
2022-08-05T17:25:59.476Z,74.90
2022-08-05T17:28:26.427Z,74.40
2022-08-05T17:30:55.850Z,74.20
2022-08-05T17:33:23.137Z,74.70
2022-08-05T17:36:08.918Z,75.10
2022-08-05T17:38:39.793Z,75.50
2022-08-05T17:41:07.194Z,75.90
2022-08-05T17:43:53.380Z,76.60
2022-08-05T17:46:21.347Z,76.60
2022-08-05T17:48:48.361Z,76.90
2022-08-05T17:51:21.466Z,77.40
2022-08-05T17:53:50.838Z,77.60
2022-08-05T17:56:22.583Z,78.30
2022-08-05T17:58:49.968Z,78.70
2022-08-05T18:01:18.234Z,79.10
2022-08-05T18:03:59.023Z,79.50
2022-08-05T18:06:31.421Z,79.60
2022-08-05T18:09:03.770Z,79.70
2022-08-05T18:11:33.528Z,80.00
2022-08-05T18:14:03.637Z,80.10
2022-08-05T18:16:31.818Z,80.40
2022-08-05T18:18:58.722Z,80.70
2022-08-05T18:21:26.043Z,80.90
2022-08-05T18:23:54.350Z,81.10
2022-08-05T18:26:29.122Z,81.80
2022-08-05T18:28:57.104Z,82.80
2022-08-05T18:31:25.223Z,83.80
2022-08-05T18:33:52.273Z,84.60
2022-08-05T18:36:19.456Z,85.40
2022-08-05T18:38:46.765Z,86.80
2022-08-05T18:41:56.291Z,86.00
2022-08-05T18:44:06.185Z,86.40
2022-08-05T18:46:34.828Z,86.70
2022-08-05T18:49:22.849Z,87.20
2022-08-05T18:52:16.317Z,87.90
2022-08-05T18:54:45.808Z,88.80
2022-08-05T18:57:15.396Z,88.80
2022-08-05T19:00:01.644Z,88.90
2022-08-05T19:02:30.861Z,89.10
2022-08-05T19:05:02.707Z,89.70
2022-08-05T19:07:48.157Z,90.00
2022-08-05T19:10:15.403Z,90.20
2022-08-05T19:12:43.232Z,90.30
2022-08-05T19:15:57.059Z,90.40
2022-08-05T19:18:09.465Z,90.50
2022-08-05T19:20:41.643Z,90.70
2022-08-05T19:24:03.588Z,90.80
2022-08-05T19:26:02.094Z,91.00
2022-08-05T19:28:30.038Z,91.00
2022-08-05T19:30:59.091Z,91.20
2022-08-05T19:33:35.461Z,91.30
2022-08-05T19:36:06.447Z,91.10
2022-08-05T19:38:33.984Z,91.10
2022-08-05T19:41:02.874Z,91.20
2022-08-05T19:44:05.326Z,91.20
2022-08-05T19:46:30.295Z,91.40
2022-08-05T19:49:01.127Z,91.50
2022-08-05T19:52:04.187Z,91.30
2022-08-05T19:54:27.254Z,91.00
2022-08-05T19:56:58.848Z,90.90
2022-08-05T19:59:56.320Z,90.80
2022-08-05T20:02:17.578Z,90.60
2022-08-05T20:04:50.200Z,90.40
2022-08-05T20:07:46.689Z,90.30
2022-08-05T20:10:11.493Z,90.30
2022-08-05T20:12:48.371Z,90.50
2022-08-05T20:15:48.663Z,90.50
2022-08-05T20:18:10.906Z,90.70
2022-08-05T20:20:55.021Z,90.70
2022-08-05T20:23:23.580Z,90.90
2022-08-05T20:25:52.244Z,91.20
2022-08-05T20:28:20.387Z,91.30
2022-08-05T20:30:49.474Z,91.60
2022-08-05T20:33:17.714Z,91.80
2022-08-05T20:35:48.379Z,91.90
2022-08-05T20:38:22.790Z,92.20
2022-08-05T20:40:56.311Z,92.40
2022-08-05T20:43:57.368Z,92.60
2022-08-05T20:46:12.449Z,92.60
2022-08-05T20:48:51.047Z,92.80
2022-08-05T20:51:18.239Z,93.10
2022-08-05T20:53:56.398Z,93.40
2022-08-05T20:56:28.835Z,93.70
2022-08-05T20:59:00.149Z,94.00
2022-08-05T21:01:41.506Z,94.30
2022-08-05T21:04:12.510Z,94.50
2022-08-05T21:06:45.174Z,94.70
2022-08-05T21:09:14.132Z,94.90
2022-08-05T21:12:06.953Z,95.20
2022-08-05T21:14:28.673Z,95.30
2022-08-05T21:17:01.705Z,95.60
2022-08-05T21:19:47.582Z,96.00
2022-08-05T21:22:18.614Z,97.60
2022-08-05T21:24:51.709Z,98.50
2022-08-05T21:27:20.628Z,98.80
2022-08-05T21:29:54.218Z,99.00
2022-08-05T21:32:23.364Z,99.90
2022-08-05T21:35:08.237Z,99.90
2022-08-05T21:37:41.429Z,99.90
2022-08-05T21:40:13.653Z,99.90
2022-08-05T21:42:44.108Z,99.90
2022-08-05T21:45:24.831Z,99.90
2022-08-05T21:48:02.057Z,99.90
2022-08-05T21:50:34.902Z,99.90
2022-08-05T21:53:16.153Z,99.90
2022-08-05T21:56:09.420Z,99.90
2022-08-05T21:58:32.483Z,99.90
2022-08-05T22:00:59.832Z,99.90
2022-08-05T22:03:48.849Z,99.90
2022-08-05T22:06:15.874Z,99.90
2022-08-05T22:08:51.776Z,99.90
2022-08-05T22:11:19.447Z,99.90
2022-08-05T22:14:32.486Z,99.90
2022-08-05T22:16:51.869Z,99.90
2022-08-05T22:20:00.697Z,99.90
2022-08-05T22:22:12.186Z,99.90
2022-08-05T22:24:58.007Z,99.90
2022-08-05T22:28:08.609Z,99.90
2022-08-05T22:30:56.154Z,99.30
2022-08-05T22:33:56.593Z,98.50
2022-08-05T22:36:14.648Z,98.00
2022-08-05T22:38:48.746Z,96.90
2022-08-05T22:42:05.471Z,96.80
2022-08-05T22:44:04.095Z,95.90
2022-08-05T22:46:31.334Z,95.90
2022-08-05T22:48:59.414Z,94.40
2022-08-05T22:51:29.976Z,94.30
2022-08-05T22:54:14.501Z,94.50
2022-08-05T22:56:41.422Z,93.90
2022-08-05T22:59:44.157Z,93.40
2022-08-05T23:02:05.858Z,93.30
2022-08-05T23:04:34.798Z,93.60
2022-08-05T23:07:01.704Z,93.40
2022-08-05T23:09:58.376Z,93.40
2022-08-05T23:12:23.800Z,93.40
2022-08-05T23:14:51.163Z,93.40
2022-08-05T23:17:32.651Z,93.20
2022-08-05T23:20:10.546Z,93.40
2022-08-05T23:22:44.051Z,93.30
2022-08-05T23:25:16.900Z,93.60
2022-08-05T23:27:57.722Z,93.70
2022-08-05T23:30:29.077Z,93.40
2022-08-05T23:32:58.171Z,93.10
2022-08-05T23:35:28.439Z,93.20
2022-08-05T23:38:01.133Z,93.20
2022-08-05T23:40:29.402Z,92.90
2022-08-05T23:42:56.291Z,92.90
2022-08-05T23:45:23.697Z,92.70
2022-08-05T23:47:52.043Z,92.80
2022-08-05T23:50:20.876Z,93.00
2022-08-05T23:52:50.622Z,93.00
2022-08-05T23:55:19.054Z,92.90
2022-08-05T23:57:48.725Z,93.00
